Hinkle, KY (40953)

5:08 PM EST on December 08, 2016 (GMT -0500)
Mackey Bend | | Change Station

Elev 1007 ft 36.82 °N, 83.96 °W | Updated 6 seconds ago

Clear
Clear
34.2 °F
Feels Like 34 °F
N
3.0
Wind Variable Wind from SSW

Today
High -- | Low -- °F
--% Chance of Precip.
Yesterday
High -- | Low -- °F
Precip. -- in
Pressure 30.35 in
Visibility 10.0 miles
Clouds Clear
Windchill 34 °F
Dew Point 21 °F
Humidity 58%
Rainfall 0.00 in
Snow Depth Not available.
7:36 AM 5:18 PM
Waxing Gibbous, 67% visible
METAR KLOZ 082153Z AUTO 27011KT 10SM CLR 01/M09 A3032 RMK AO2 SLP277 T00061094
Pressure 30.35 in
Visibility 10.0 miles
Clouds Clear
Windchill 34 °F
Dew Point 21 °F
Humidity 58%
Rainfall 0.00 in
Snow Depth Not available.
7:36 AM 5:18 PM
Waxing Gibbous, 67% visible
METAR KLOZ 082153Z AUTO 27011KT 10SM CLR 01/M09 A3032 RMK AO2 SLP277 T00061094

10-Day Weather Forecast

Almanac

Astronomy

Dec. 08, 2016 Rise Set
Actual Time
Civil Twilight
Nautical Twilight
Astronomical Twilight
Moon
Length of Visible Light
Length of Day
Tomorrow will be .
, % of the Moon is Illuminated

Today's Extremes

State Highs State Lows

Community

WunderPhotos

Upload Photos

1,956,277 photos uploaded!

WunderBlog® & News

Nearby

Air Quality

  Air Quality AQ Index Pollutant
Not available.

Snow Depth

Station Depth Elevation

Earthquake Activity

City Distance Mag. Time & Date
Minimum magnitude displayed is 2.5.

Coastal Water Temperatures

Place Temperature

Stations

Nearby Weather Stations

Station Location Temp. Windchill Dew Point Humidity Wind Precip. Elev Updated Type
                   

Watches & Warnings

There are currently no watches in effect.